sensor_id;sensor_type;location;lat;lon;timestamp;temperature;humidity
16247;DHT22;8231;50.866;7.944;2024-02-26T00:01:00;4.60;99.90
16247;DHT22;8231;50.866;7.944;2024-02-26T00:03:29;5.30;99.90
16247;DHT22;8231;50.866;7.944;2024-02-26T00:06:01;4.70;99.90
16247;DHT22;8231;50.866;7.944;2024-02-26T00:08:29;4.70;99.90
16247;DHT22;8231;50.866;7.944;2024-02-26T00:10:58;4.70;99.90
16247;DHT22;8231;50.866;7.944;2024-02-26T00:13:26;4.70;99.90
16247;DHT22;8231;50.866;7.944;2024-02-26T00:15:54;4.80;99.90
16247;DHT22;8231;50.866;7.944;2024-02-26T00:18:22;4.80;99.90
16247;DHT22;8231;50.866;7.944;2024-02-26T00:20:51;4.80;99.90
16247;DHT22;8231;50.866;7.944;2024-02-26T00:23:21;4.80;99.90
16247;DHT22;8231;50.866;7.944;2024-02-26T00:25:50;4.80;99.90
16247;DHT22;8231;50.866;7.944;2024-02-26T00:28:19;4.80;99.90
16247;DHT22;8231;50.866;7.944;2024-02-26T00:30:47;4.90;99.90
16247;DHT22;8231;50.866;7.944;2024-02-26T00:33:16;4.90;99.90
16247;DHT22;8231;50.866;7.944;2024-02-26T00:35:45;4.90;99.90
16247;DHT22;8231;50.866;7.944;2024-02-26T00:38:13;4.90;99.90
16247;DHT22;8231;50.866;7.944;2024-02-26T00:40:43;4.90;99.90
16247;DHT22;8231;50.866;7.944;2024-02-26T00:43:11;4.80;99.90
16247;DHT22;8231;50.866;7.944;2024-02-26T00:45:40;4.80;99.90
16247;DHT22;8231;50.866;7.944;2024-02-26T00:48:08;5.00;99.90
16247;DHT22;8231;50.866;7.944;2024-02-26T00:50:36;4.70;99.90
16247;DHT22;8231;50.866;7.944;2024-02-26T00:53:05;4.70;99.90
16247;DHT22;8231;50.866;7.944;2024-02-26T00:55:33;4.70;99.90
16247;DHT22;8231;50.866;7.944;2024-02-26T00:58:02;4.70;99.90
16247;DHT22;8231;50.866;7.944;2024-02-26T01:00:30;4.70;99.90
16247;DHT22;8231;50.866;7.944;2024-02-26T01:02:59;4.60;99.90
16247;DHT22;8231;50.866;7.944;2024-02-26T01:05:28;4.60;99.90
16247;DHT22;8231;50.866;7.944;2024-02-26T01:07:56;4.60;99.90
16247;DHT22;8231;50.866;7.944;2024-02-26T01:10:24;4.60;99.90
16247;DHT22;8231;50.866;7.944;2024-02-26T01:12:52;4.70;99.90
16247;DHT22;8231;50.866;7.944;2024-02-26T01:15:22;4.70;99.90
16247;DHT22;8231;50.866;7.944;2024-02-26T01:17:51;4.70;99.90
16247;DHT22;8231;50.866;7.944;2024-02-26T01:20:19;4.70;99.90
16247;DHT22;8231;50.866;7.944;2024-02-26T01:22:48;4.70;99.90
16247;DHT22;8231;50.866;7.944;2024-02-26T01:25:16;4.70;99.90
16247;DHT22;8231;50.866;7.944;2024-02-26T01:27:45;4.80;99.90
16247;DHT22;8231;50.866;7.944;2024-02-26T01:30:13;4.70;99.90
16247;DHT22;8231;50.866;7.944;2024-02-26T01:32:44;4.70;99.90
16247;DHT22;8231;50.866;7.944;2024-02-26T01:35:13;4.70;99.90
16247;DHT22;8231;50.866;7.944;2024-02-26T01:37:41;4.70;99.90
16247;DHT22;8231;50.866;7.944;2024-02-26T01:40:11;4.70;99.90
16247;DHT22;8231;50.866;7.944;2024-02-26T01:42:44;4.70;99.90
16247;DHT22;8231;50.866;7.944;2024-02-26T01:45:15;4.70;99.90
16247;DHT22;8231;50.866;7.944;2024-02-26T01:47:51;5.30;99.90
16247;DHT22;8231;50.866;7.944;2024-02-26T01:50:20;4.70;99.90
16247;DHT22;8231;50.866;7.944;2024-02-26T01:52:51;4.80;99.90
16247;DHT22;8231;50.866;7.944;2024-02-26T01:55:20;4.80;99.90
16247;DHT22;8231;50.866;7.944;2024-02-26T01:57:51;4.80;99.90
16247;DHT22;8231;50.866;7.944;2024-02-26T02:00:21;4.80;99.90
16247;DHT22;8231;50.866;7.944;2024-02-26T02:02:51;4.80;99.90
16247;DHT22;8231;50.866;7.944;2024-02-26T02:05:22;4.70;99.90
16247;DHT22;8231;50.866;7.944;2024-02-26T02:07:51;4.70;99.90
16247;DHT22;8231;50.866;7.944;2024-02-26T02:10:20;4.70;99.90
16247;DHT22;8231;50.866;7.944;2024-02-26T02:12:52;4.70;99.90
16247;DHT22;8231;50.866;7.944;2024-02-26T02:15:20;4.70;99.90
16247;DHT22;8231;50.866;7.944;2024-02-26T02:17:50;4.70;99.90
16247;DHT22;8231;50.866;7.944;2024-02-26T02:20:19;4.70;99.90
16247;DHT22;8231;50.866;7.944;2024-02-26T02:22:49;4.80;99.90
16247;DHT22;8231;50.866;7.944;2024-02-26T02:25:17;5.00;99.90
16247;DHT22;8231;50.866;7.944;2024-02-26T02:27:45;5.20;99.90
16247;DHT22;8231;50.866;7.944;2024-02-26T02:30:14;4.90;99.90
16247;DHT22;8231;50.866;7.944;2024-02-26T02:32:43;4.80;99.90
16247;DHT22;8231;50.866;7.944;2024-02-26T02:35:11;4.80;99.90
16247;DHT22;8231;50.866;7.944;2024-02-26T02:37:39;4.80;99.90
16247;DHT22;8231;50.866;7.944;2024-02-26T02:40:09;4.80;99.90
16247;DHT22;8231;50.866;7.944;2024-02-26T02:42:37;4.90;99.90
16247;DHT22;8231;50.866;7.944;2024-02-26T02:45:06;4.90;99.90
16247;DHT22;8231;50.866;7.944;2024-02-26T02:47:36;4.90;99.90
16247;DHT22;8231;50.866;7.944;2024-02-26T02:50:05;4.90;99.90
16247;DHT22;8231;50.866;7.944;2024-02-26T02:52:33;4.90;99.90
16247;DHT22;8231;50.866;7.944;2024-02-26T02:55:02;4.80;99.90
16247;DHT22;8231;50.866;7.944;2024-02-26T02:57:32;4.80;99.90
16247;DHT22;8231;50.866;7.944;2024-02-26T03:00:08;5.60;99.90
16247;DHT22;8231;50.866;7.944;2024-02-26T03:02:37;4.80;99.90
16247;DHT22;8231;50.866;7.944;2024-02-26T03:05:06;4.80;99.90
16247;DHT22;8231;50.866;7.944;2024-02-26T03:07:34;4.80;99.90
16247;DHT22;8231;50.866;7.944;2024-02-26T03:10:02;4.80;99.90
16247;DHT22;8231;50.866;7.944;2024-02-26T03:12:33;4.80;99.90
16247;DHT22;8231;50.866;7.944;2024-02-26T03:15:02;4.80;99.90
16247;DHT22;8231;50.866;7.944;2024-02-26T03:17:31;4.80;99.90
16247;DHT22;8231;50.866;7.944;2024-02-26T03:20:00;4.80;99.90
16247;DHT22;8231;50.866;7.944;2024-02-26T03:22:30;4.90;99.90
16247;DHT22;8231;50.866;7.944;2024-02-26T03:24:58;4.90;99.90
16247;DHT22;8231;50.866;7.944;2024-02-26T03:27:27;4.90;99.90
16247;DHT22;8231;50.866;7.944;2024-02-26T03:29:56;4.90;99.90
16247;DHT22;8231;50.866;7.944;2024-02-26T03:32:25;4.80;99.90
16247;DHT22;8231;50.866;7.944;2024-02-26T03:34:53;4.80;99.90
16247;DHT22;8231;50.866;7.944;2024-02-26T03:37:23;4.80;99.90
16247;DHT22;8231;50.866;7.944;2024-02-26T03:39:52;4.80;99.90
16247;DHT22;8231;50.866;7.944;2024-02-26T03:42:20;4.80;99.90
16247;DHT22;8231;50.866;7.944;2024-02-26T03:44:48;4.80;99.90
16247;DHT22;8231;50.866;7.944;2024-02-26T03:47:18;5.00;99.90
16247;DHT22;8231;50.866;7.944;2024-02-26T03:49:46;5.00;99.90
16247;DHT22;8231;50.866;7.944;2024-02-26T03:52:15;4.90;99.90
16247;DHT22;8231;50.866;7.944;2024-02-26T03:54:43;4.90;99.90
16247;DHT22;8231;50.866;7.944;2024-02-26T03:57:11;4.90;99.90
16247;DHT22;8231;50.866;7.944;2024-02-26T03:59:41;4.90;99.90
16247;DHT22;8231;50.866;7.944;2024-02-26T04:02:10;4.90;99.90
16247;DHT22;8231;50.866;7.944;2024-02-26T04:04:39;4.90;99.90
16247;DHT22;8231;50.866;7.944;2024-02-26T04:07:08;5.30;99.90
16247;DHT22;8231;50.866;7.944;2024-02-26T04:09:36;4.90;99.90
16247;DHT22;8231;50.866;7.944;2024-02-26T04:12:05;4.90;99.90
16247;DHT22;8231;50.866;7.944;2024-02-26T04:14:33;4.90;99.90
16247;DHT22;8231;50.866;7.944;2024-02-26T04:17:02;4.90;99.90
16247;DHT22;8231;50.866;7.944;2024-02-26T04:19:30;4.90;99.90
16247;DHT22;8231;50.866;7.944;2024-02-26T04:22:01;4.90;99.90
16247;DHT22;8231;50.866;7.944;2024-02-26T04:24:29;4.90;99.90
16247;DHT22;8231;50.866;7.944;2024-02-26T04:26:57;4.90;99.90
16247;DHT22;8231;50.866;7.944;2024-02-26T04:29:25;4.90;99.90
16247;DHT22;8231;50.866;7.944;2024-02-26T04:31:54;4.90;99.90
16247;DHT22;8231;50.866;7.944;2024-02-26T04:34:22;5.00;99.90
16247;DHT22;8231;50.866;7.944;2024-02-26T04:36:50;5.00;99.90
16247;DHT22;8231;50.866;7.944;2024-02-26T04:39:20;5.00;99.90
16247;DHT22;8231;50.866;7.944;2024-02-26T04:41:49;5.00;99.90
16247;DHT22;8231;50.866;7.944;2024-02-26T04:44:17;5.00;99.90
16247;DHT22;8231;50.866;7.944;2024-02-26T04:46:46;5.00;99.90
16247;DHT22;8231;50.866;7.944;2024-02-26T04:49:14;5.00;99.90
16247;DHT22;8231;50.866;7.944;2024-02-26T04:51:43;4.90;99.90
16247;DHT22;8231;50.866;7.944;2024-02-26T04:54:11;4.90;99.90
16247;DHT22;8231;50.866;7.944;2024-02-26T04:56:40;4.90;99.90
16247;DHT22;8231;50.866;7.944;2024-02-26T04:59:09;4.90;99.90
16247;DHT22;8231;50.866;7.944;2024-02-26T05:01:37;4.90;99.90
16247;DHT22;8231;50.866;7.944;2024-02-26T05:04:06;4.90;99.90
16247;DHT22;8231;50.866;7.944;2024-02-26T05:06:36;4.90;99.90
16247;DHT22;8231;50.866;7.944;2024-02-26T05:09:04;4.90;99.90
16247;DHT22;8231;50.866;7.944;2024-02-26T05:11:33;4.80;99.90
16247;DHT22;8231;50.866;7.944;2024-02-26T05:14:04;4.80;99.90
16247;DHT22;8231;50.866;7.944;2024-02-26T05:16:33;4.80;99.90
16247;DHT22;8231;50.866;7.944;2024-02-26T05:19:01;4.90;99.90
16247;DHT22;8231;50.866;7.944;2024-02-26T05:21:29;5.40;99.90
16247;DHT22;8231;50.866;7.944;2024-02-26T05:23:58;4.80;99.90
16247;DHT22;8231;50.866;7.944;2024-02-26T05:26:26;4.80;99.90
16247;DHT22;8231;50.866;7.944;2024-02-26T05:28:55;4.80;99.90
16247;DHT22;8231;50.866;7.944;2024-02-26T05:31:28;4.80;99.90
16247;DHT22;8231;50.866;7.944;2024-02-26T05:33:56;4.80;99.90
16247;DHT22;8231;50.866;7.944;2024-02-26T05:36:25;4.80;99.90
16247;DHT22;8231;50.866;7.944;2024-02-26T05:38:55;4.80;99.90
16247;DHT22;8231;50.866;7.944;2024-02-26T05:41:24;5.00;99.90
16247;DHT22;8231;50.866;7.944;2024-02-26T05:43:53;4.70;99.90
16247;DHT22;8231;50.866;7.944;2024-02-26T05:46:22;4.70;99.90
16247;DHT22;8231;50.866;7.944;2024-02-26T05:48:52;4.70;99.90
16247;DHT22;8231;50.866;7.944;2024-02-26T05:51:21;4.70;99.90
16247;DHT22;8231;50.866;7.944;2024-02-26T05:53:49;4.70;99.90
16247;DHT22;8231;50.866;7.944;2024-02-26T05:56:21;4.70;99.90
16247;DHT22;8231;50.866;7.944;2024-02-26T05:58:50;4.70;99.90
16247;DHT22;8231;50.866;7.944;2024-02-26T06:01:19;4.70;99.90
16247;DHT22;8231;50.866;7.944;2024-02-26T06:03:48;5.10;99.90
16247;DHT22;8231;50.866;7.944;2024-02-26T06:06:18;4.70;99.90
16247;DHT22;8231;50.866;7.944;2024-02-26T06:08:46;4.70;99.90
16247;DHT22;8231;50.866;7.944;2024-02-26T06:11:15;4.70;99.90
16247;DHT22;8231;50.866;7.944;2024-02-26T06:13:43;4.60;99.90
16247;DHT22;8231;50.866;7.944;2024-02-26T06:16:11;4.60;99.90
16247;DHT22;8231;50.866;7.944;2024-02-26T06:18:40;4.60;99.90
16247;DHT22;8231;50.866;7.944;2024-02-26T06:21:09;4.60;99.90
16247;DHT22;8231;50.866;7.944;2024-02-26T06:23:40;4.60;99.90
16247;DHT22;8231;50.866;7.944;2024-02-26T06:26:08;4.60;99.90
16247;DHT22;8231;50.866;7.944;2024-02-26T06:28:37;4.50;99.90
16247;DHT22;8231;50.866;7.944;2024-02-26T06:31:07;4.50;99.90
16247;DHT22;8231;50.866;7.944;2024-02-26T06:33:36;4.50;99.90
16247;DHT22;8231;50.866;7.944;2024-02-26T06:36:05;4.50;99.90
16247;DHT22;8231;50.866;7.944;2024-02-26T06:38:33;4.50;99.90
16247;DHT22;8231;50.866;7.944;2024-02-26T06:41:03;4.50;99.90
16247;DHT22;8231;50.866;7.944;2024-02-26T06:43:31;4.50;99.90
16247;DHT22;8231;50.866;7.944;2024-02-26T06:45:59;4.50;99.90
16247;DHT22;8231;50.866;7.944;2024-02-26T06:48:27;4.50;99.90
16247;DHT22;8231;50.866;7.944;2024-02-26T06:50:56;4.50;99.90
16247;DHT22;8231;50.866;7.944;2024-02-26T06:53:24;4.50;99.90
16247;DHT22;8231;50.866;7.944;2024-02-26T06:55:52;4.50;99.90
16247;DHT22;8231;50.866;7.944;2024-02-26T06:58:22;4.60;99.90
16247;DHT22;8231;50.866;7.944;2024-02-26T07:00:50;4.50;99.90
16247;DHT22;8231;50.866;7.944;2024-02-26T07:03:18;4.50;99.90
16247;DHT22;8231;50.866;7.944;2024-02-26T07:05:46;4.80;99.90
16247;DHT22;8231;50.866;7.944;2024-02-26T07:08:15;4.60;99.90
16247;DHT22;8231;50.866;7.944;2024-02-26T07:10:43;4.60;99.90
16247;DHT22;8231;50.866;7.944;2024-02-26T07:13:11;4.60;99.90
16247;DHT22;8231;50.866;7.944;2024-02-26T07:15:41;4.60;99.90
16247;DHT22;8231;50.866;7.944;2024-02-26T07:18:09;4.60;99.90
16247;DHT22;8231;50.866;7.944;2024-02-26T07:20:38;4.60;99.90
16247;DHT22;8231;50.866;7.944;2024-02-26T07:23:08;4.60;99.90
16247;DHT22;8231;50.866;7.944;2024-02-26T07:25:37;4.60;99.90
16247;DHT22;8231;50.866;7.944;2024-02-26T07:28:05;4.60;99.90
16247;DHT22;8231;50.866;7.944;2024-02-26T07:30:33;4.60;99.90
16247;DHT22;8231;50.866;7.944;2024-02-26T07:33:03;4.60;99.90
16247;DHT22;8231;50.866;7.944;2024-02-26T07:35:32;4.60;99.90
16247;DHT22;8231;50.866;7.944;2024-02-26T07:38:00;4.60;99.90
16247;DHT22;8231;50.866;7.944;2024-02-26T07:40:28;4.60;99.90
16247;DHT22;8231;50.866;7.944;2024-02-26T07:42:57;4.60;99.90
16247;DHT22;8231;50.866;7.944;2024-02-26T07:45:25;4.70;99.90
16247;DHT22;8231;50.866;7.944;2024-02-26T07:47:54;4.70;99.90
16247;DHT22;8231;50.866;7.944;2024-02-26T07:50:24;4.60;99.90
16247;DHT22;8231;50.866;7.944;2024-02-26T07:52:52;4.60;99.90
16247;DHT22;8231;50.866;7.944;2024-02-26T07:55:20;4.60;99.90
16247;DHT22;8231;50.866;7.944;2024-02-26T07:57:50;4.60;99.90
16247;DHT22;8231;50.866;7.944;2024-02-26T08:00:19;4.60;99.90
16247;DHT22;8231;50.866;7.944;2024-02-26T08:02:47;4.60;99.90
16247;DHT22;8231;50.866;7.944;2024-02-26T08:05:15;4.70;99.90
16247;DHT22;8231;50.866;7.944;2024-02-26T08:07:45;4.70;99.90
16247;DHT22;8231;50.866;7.944;2024-02-26T08:10:13;4.70;99.90
16247;DHT22;8231;50.866;7.944;2024-02-26T08:12:42;4.70;99.90
16247;DHT22;8231;50.866;7.944;2024-02-26T08:15:12;4.70;99.90
16247;DHT22;8231;50.866;7.944;2024-02-26T08:17:40;4.80;99.90
16247;DHT22;8231;50.866;7.944;2024-02-26T08:20:09;4.80;99.90
16247;DHT22;8231;50.866;7.944;2024-02-26T08:22:37;4.80;99.90
16247;DHT22;8231;50.866;7.944;2024-02-26T08:25:08;4.80;99.90
16247;DHT22;8231;50.866;7.944;2024-02-26T08:27:38;4.80;99.90
16247;DHT22;8231;50.866;7.944;2024-02-26T08:30:07;4.80;99.90
16247;DHT22;8231;50.866;7.944;2024-02-26T08:32:36;4.80;99.90
16247;DHT22;8231;50.866;7.944;2024-02-26T08:35:05;4.80;99.90
16247;DHT22;8231;50.866;7.944;2024-02-26T08:37:33;4.80;99.90
16247;DHT22;8231;50.866;7.944;2024-02-26T08:40:01;4.80;99.90
16247;DHT22;8231;50.866;7.944;2024-02-26T08:42:34;4.80;99.90
16247;DHT22;8231;50.866;7.944;2024-02-26T08:45:03;4.80;99.90
16247;DHT22;8231;50.866;7.944;2024-02-26T08:47:32;4.80;99.90
16247;DHT22;8231;50.866;7.944;2024-02-26T08:50:00;4.90;99.90
16247;DHT22;8231;50.866;7.944;2024-02-26T08:52:29;4.70;99.90
16247;DHT22;8231;50.866;7.944;2024-02-26T08:54:57;4.80;99.90
16247;DHT22;8231;50.866;7.944;2024-02-26T08:57:25;4.80;99.90
16247;DHT22;8231;50.866;7.944;2024-02-26T08:59:56;4.80;99.90
16247;DHT22;8231;50.866;7.944;2024-02-26T09:02:24;4.80;99.90
16247;DHT22;8231;50.866;7.944;2024-02-26T09:04:52;4.80;99.90
16247;DHT22;8231;50.866;7.944;2024-02-26T09:07:22;4.80;99.90
16247;DHT22;8231;50.866;7.944;2024-02-26T09:09:51;4.80;99.90
16247;DHT22;8231;50.866;7.944;2024-02-26T09:12:19;4.80;99.90
16247;DHT22;8231;50.866;7.944;2024-02-26T09:14:48;4.90;99.90
16247;DHT22;8231;50.866;7.944;2024-02-26T09:17:18;4.80;99.90
16247;DHT22;8231;50.866;7.944;2024-02-26T09:19:46;4.80;99.90
16247;DHT22;8231;50.866;7.944;2024-02-26T09:22:14;4.90;99.90
16247;DHT22;8231;50.866;7.944;2024-02-26T09:24:45;4.90;99.90
16247;DHT22;8231;50.866;7.944;2024-02-26T09:27:13;4.90;99.90
16247;DHT22;8231;50.866;7.944;2024-02-26T09:29:42;5.00;99.90
16247;DHT22;8231;50.866;7.944;2024-02-26T09:32:10;5.00;99.90
16247;DHT22;8231;50.866;7.944;2024-02-26T09:34:41;5.00;99.90
16247;DHT22;8231;50.866;7.944;2024-02-26T09:37:10;5.00;99.90
16247;DHT22;8231;50.866;7.944;2024-02-26T09:39:48;5.00;99.90
16247;DHT22;8231;50.866;7.944;2024-02-26T09:42:18;5.00;99.90
16247;DHT22;8231;50.866;7.944;2024-02-26T09:44:49;5.10;99.90
16247;DHT22;8231;50.866;7.944;2024-02-26T09:47:19;5.10;99.90
16247;DHT22;8231;50.866;7.944;2024-02-26T09:49:52;5.10;99.90
16247;DHT22;8231;50.866;7.944;2024-02-26T09:52:21;5.80;99.90
16247;DHT22;8231;50.866;7.944;2024-02-26T09:54:49;5.20;99.90
16247;DHT22;8231;50.866;7.944;2024-02-26T09:57:18;5.20;99.90
16247;DHT22;8231;50.866;7.944;2024-02-26T09:59:48;5.30;99.90
16247;DHT22;8231;50.866;7.944;2024-02-26T10:02:18;5.30;99.90
16247;DHT22;8231;50.866;7.944;2024-02-26T10:04:50;5.30;99.90
16247;DHT22;8231;50.866;7.944;2024-02-26T10:07:20;5.40;99.90
16247;DHT22;8231;50.866;7.944;2024-02-26T10:09:50;5.50;99.90
16247;DHT22;8231;50.866;7.944;2024-02-26T10:12:19;6.20;99.90
16247;DHT22;8231;50.866;7.944;2024-02-26T10:14:47;5.60;99.90
16247;DHT22;8231;50.866;7.944;2024-02-26T10:17:15;6.00;99.90
16247;DHT22;8231;50.866;7.944;2024-02-26T10:19:44;5.60;99.90
16247;DHT22;8231;50.866;7.944;2024-02-26T10:22:13;5.60;99.90
16247;DHT22;8231;50.866;7.944;2024-02-26T10:24:41;5.70;99.90
16247;DHT22;8231;50.866;7.944;2024-02-26T10:27:10;5.70;99.90
16247;DHT22;8231;50.866;7.944;2024-02-26T10:29:39;5.80;99.90
16247;DHT22;8231;50.866;7.944;2024-02-26T10:32:07;5.90;99.90
16247;DHT22;8231;50.866;7.944;2024-02-26T10:34:36;5.90;99.90
16247;DHT22;8231;50.866;7.944;2024-02-26T10:37:05;5.90;99.90
16247;DHT22;8231;50.866;7.944;2024-02-26T10:39:36;6.00;99.90
16247;DHT22;8231;50.866;7.944;2024-02-26T10:42:05;6.00;99.90
16247;DHT22;8231;50.866;7.944;2024-02-26T10:44:40;6.10;99.90
16247;DHT22;8231;50.866;7.944;2024-02-26T10:47:09;6.60;99.90
16247;DHT22;8231;50.866;7.944;2024-02-26T10:49:38;6.10;99.90
16247;DHT22;8231;50.866;7.944;2024-02-26T10:52:07;6.10;99.90
16247;DHT22;8231;50.866;7.944;2024-02-26T10:54:38;6.10;99.90
16247;DHT22;8231;50.866;7.944;2024-02-26T10:57:08;6.20;99.90
16247;DHT22;8231;50.866;7.944;2024-02-26T10:59:39;6.20;99.90
16247;DHT22;8231;50.866;7.944;2024-02-26T11:02:08;6.40;99.90
16247;DHT22;8231;50.866;7.944;2024-02-26T11:04:38;6.30;99.90
16247;DHT22;8231;50.866;7.944;2024-02-26T11:07:08;6.40;99.90
16247;DHT22;8231;50.866;7.944;2024-02-26T11:09:39;6.40;99.90
16247;DHT22;8231;50.866;7.944;2024-02-26T11:12:12;6.50;99.90
16247;DHT22;8231;50.866;7.944;2024-02-26T11:14:43;6.50;99.90
16247;DHT22;8231;50.866;7.944;2024-02-26T11:17:13;6.50;99.90
16247;DHT22;8231;50.866;7.944;2024-02-26T11:19:44;6.50;99.90
16247;DHT22;8231;50.866;7.944;2024-02-26T11:22:13;6.70;99.90
16247;DHT22;8231;50.866;7.944;2024-02-26T11:24:52;6.70;99.90
16247;DHT22;8231;50.866;7.944;2024-02-26T11:27:23;6.70;99.90
16247;DHT22;8231;50.866;7.944;2024-02-26T11:29:54;6.70;99.90
16247;DHT22;8231;50.866;7.944;2024-02-26T11:32:25;6.80;99.90
16247;DHT22;8231;50.866;7.944;2024-02-26T11:34:54;6.80;99.90
16247;DHT22;8231;50.866;7.944;2024-02-26T11:37:22;6.90;99.90
16247;DHT22;8231;50.866;7.944;2024-02-26T11:39:52;7.40;99.90
16247;DHT22;8231;50.866;7.944;2024-02-26T11:42:23;7.00;99.90
16247;DHT22;8231;50.866;7.944;2024-02-26T11:44:52;7.20;99.90
16247;DHT22;8231;50.866;7.944;2024-02-26T11:47:23;7.10;99.90
16247;DHT22;8231;50.866;7.944;2024-02-26T11:49:51;7.10;99.90
16247;DHT22;8231;50.866;7.944;2024-02-26T11:52:19;7.30;99.90
16247;DHT22;8231;50.866;7.944;2024-02-26T11:54:49;7.00;99.90
16247;DHT22;8231;50.866;7.944;2024-02-26T11:57:26;7.00;99.90
16247;DHT22;8231;50.866;7.944;2024-02-26T11:59:57;7.00;99.90
16247;DHT22;8231;50.866;7.944;2024-02-26T12:02:45;7.00;99.90
16247;DHT22;8231;50.866;7.944;2024-02-26T12:05:15;6.90;99.90
16247;DHT22;8231;50.866;7.944;2024-02-26T12:07:45;6.80;99.90
16247;DHT22;8231;50.866;7.944;2024-02-26T12:10:32;6.90;99.90
16247;DHT22;8231;50.866;7.944;2024-02-26T12:13:07;7.00;99.90
16247;DHT22;8231;50.866;7.944;2024-02-26T12:15:37;7.00;99.90
16247;DHT22;8231;50.866;7.944;2024-02-26T12:18:08;7.20;99.90
16247;DHT22;8231;50.866;7.944;2024-02-26T12:20:37;7.10;99.90
16247;DHT22;8231;50.866;7.944;2024-02-26T12:23:06;7.10;99.90
16247;DHT22;8231;50.866;7.944;2024-02-26T12:25:34;7.10;99.90
16247;DHT22;8231;50.866;7.944;2024-02-26T12:28:04;7.60;99.90
16247;DHT22;8231;50.866;7.944;2024-02-26T12:30:32;7.50;99.90
16247;DHT22;8231;50.866;7.944;2024-02-26T12:33:02;7.70;99.90
16247;DHT22;8231;50.866;7.944;2024-02-26T12:35:30;7.70;99.90
16247;DHT22;8231;50.866;7.944;2024-02-26T12:37:59;7.40;99.90
16247;DHT22;8231;50.866;7.944;2024-02-26T12:40:28;7.50;99.90
16247;DHT22;8231;50.866;7.944;2024-02-26T12:42:56;7.50;99.90
16247;DHT22;8231;50.866;7.944;2024-02-26T12:45:26;7.60;99.90
16247;DHT22;8231;50.866;7.944;2024-02-26T12:47:55;7.50;99.90
16247;DHT22;8231;50.866;7.944;2024-02-26T12:50:24;8.00;99.90
16247;DHT22;8231;50.866;7.944;2024-02-26T12:52:53;7.50;99.90
16247;DHT22;8231;50.866;7.944;2024-02-26T12:55:22;7.50;99.90
16247;DHT22;8231;50.866;7.944;2024-02-26T12:57:50;7.60;99.90
16247;DHT22;8231;50.866;7.944;2024-02-26T13:00:21;7.90;99.90
16247;DHT22;8231;50.866;7.944;2024-02-26T13:02:51;7.50;99.90
16247;DHT22;8231;50.866;7.944;2024-02-26T13:05:22;7.60;99.90
16247;DHT22;8231;50.866;7.944;2024-02-26T13:07:52;7.60;99.90
16247;DHT22;8231;50.866;7.944;2024-02-26T13:10:20;7.80;99.90
16247;DHT22;8231;50.866;7.944;2024-02-26T13:12:49;7.70;99.90
16247;DHT22;8231;50.866;7.944;2024-02-26T13:15:19;7.80;99.90
16247;DHT22;8231;50.866;7.944;2024-02-26T13:17:50;7.80;99.90
16247;DHT22;8231;50.866;7.944;2024-02-26T13:20:27;8.00;99.90
16247;DHT22;8231;50.866;7.944;2024-02-26T13:23:01;8.30;99.90
16247;DHT22;8231;50.866;7.944;2024-02-26T13:25:29;7.80;99.90
16247;DHT22;8231;50.866;7.944;2024-02-26T13:28:06;7.90;99.90
16247;DHT22;8231;50.866;7.944;2024-02-26T13:30:35;8.00;99.90
16247;DHT22;8231;50.866;7.944;2024-02-26T13:33:12;8.10;99.90
16247;DHT22;8231;50.866;7.944;2024-02-26T13:35:41;8.00;99.90
16247;DHT22;8231;50.866;7.944;2024-02-26T13:38:10;8.00;99.90
16247;DHT22;8231;50.866;7.944;2024-02-26T13:40:39;8.00;99.90
16247;DHT22;8231;50.866;7.944;2024-02-26T13:43:07;8.00;99.90
16247;DHT22;8231;50.866;7.944;2024-02-26T13:45:37;8.10;99.90
16247;DHT22;8231;50.866;7.944;2024-02-26T13:48:07;7.90;99.90
16247;DHT22;8231;50.866;7.944;2024-02-26T13:50:38;8.00;99.90
16247;DHT22;8231;50.866;7.944;2024-02-26T13:53:07;8.00;99.90
16247;DHT22;8231;50.866;7.944;2024-02-26T13:55:34;8.10;99.90
16247;DHT22;8231;50.866;7.944;2024-02-26T13:58:03;8.10;99.90
16247;DHT22;8231;50.866;7.944;2024-02-26T14:00:32;8.20;99.90
16247;DHT22;8231;50.866;7.944;2024-02-26T14:03:02;8.20;99.90
16247;DHT22;8231;50.866;7.944;2024-02-26T14:05:30;8.60;99.90
16247;DHT22;8231;50.866;7.944;2024-02-26T14:08:00;8.20;99.90
16247;DHT22;8231;50.866;7.944;2024-02-26T14:10:28;8.20;99.90
16247;DHT22;8231;50.866;7.944;2024-02-26T14:12:58;8.70;99.90
16247;DHT22;8231;50.866;7.944;2024-02-26T14:15:28;8.30;99.90
16247;DHT22;8231;50.866;7.944;2024-02-26T14:17:56;8.30;99.90
16247;DHT22;8231;50.866;7.944;2024-02-26T14:20:25;8.30;99.90
16247;DHT22;8231;50.866;7.944;2024-02-26T14:22:53;8.30;99.90
16247;DHT22;8231;50.866;7.944;2024-02-26T14:25:23;8.30;99.90
16247;DHT22;8231;50.866;7.944;2024-02-26T14:27:55;8.30;99.90
16247;DHT22;8231;50.866;7.944;2024-02-26T14:30:25;8.60;99.90
16247;DHT22;8231;50.866;7.944;2024-02-26T14:32:54;8.40;99.90
16247;DHT22;8231;50.866;7.944;2024-02-26T14:35:23;8.40;99.90
16247;DHT22;8231;50.866;7.944;2024-02-26T14:37:51;8.50;99.90
16247;DHT22;8231;50.866;7.944;2024-02-26T14:40:22;8.60;99.90
16247;DHT22;8231;50.866;7.944;2024-02-26T14:42:50;8.70;99.90
16247;DHT22;8231;50.866;7.944;2024-02-26T14:45:18;8.40;99.90
16247;DHT22;8231;50.866;7.944;2024-02-26T14:47:47;8.40;99.90
16247;DHT22;8231;50.866;7.944;2024-02-26T14:50:16;8.40;99.90
16247;DHT22;8231;50.866;7.944;2024-02-26T14:52:45;8.90;99.90
16247;DHT22;8231;50.866;7.944;2024-02-26T14:55:13;8.40;99.90
16247;DHT22;8231;50.866;7.944;2024-02-26T14:57:42;8.40;99.90
16247;DHT22;8231;50.866;7.944;2024-02-26T15:00:11;8.40;99.90
16247;DHT22;8231;50.866;7.944;2024-02-26T15:02:39;8.40;99.90
16247;DHT22;8231;50.866;7.944;2024-02-26T15:05:08;8.40;99.90
16247;DHT22;8231;50.866;7.944;2024-02-26T15:07:38;8.50;99.90
16247;DHT22;8231;50.866;7.944;2024-02-26T15:10:08;8.40;99.90
16247;DHT22;8231;50.866;7.944;2024-02-26T15:12:36;8.50;99.90
16247;DHT22;8231;50.866;7.944;2024-02-26T15:15:08;8.50;99.90
16247;DHT22;8231;50.866;7.944;2024-02-26T15:17:36;8.40;99.90
16247;DHT22;8231;50.866;7.944;2024-02-26T15:20:06;8.40;99.90
16247;DHT22;8231;50.866;7.944;2024-02-26T15:22:36;8.40;99.90
16247;DHT22;8231;50.866;7.944;2024-02-26T15:25:05;8.40;99.90
16247;DHT22;8231;50.866;7.944;2024-02-26T15:27:33;8.40;99.90
16247;DHT22;8231;50.866;7.944;2024-02-26T15:30:02;8.40;99.90
16247;DHT22;8231;50.866;7.944;2024-02-26T15:32:32;8.50;99.90
16247;DHT22;8231;50.866;7.944;2024-02-26T15:35:00;8.50;99.90
16247;DHT22;8231;50.866;7.944;2024-02-26T15:37:28;8.50;99.90
16247;DHT22;8231;50.866;7.944;2024-02-26T15:39:57;8.50;99.90
16247;DHT22;8231;50.866;7.944;2024-02-26T15:42:25;8.50;99.90
16247;DHT22;8231;50.866;7.944;2024-02-26T15:44:53;8.40;99.90
16247;DHT22;8231;50.866;7.944;2024-02-26T15:47:22;8.40;99.90
16247;DHT22;8231;50.866;7.944;2024-02-26T15:49:51;8.80;99.90
16247;DHT22;8231;50.866;7.944;2024-02-26T15:52:20;8.30;99.90
16247;DHT22;8231;50.866;7.944;2024-02-26T15:54:48;8.30;99.90
16247;DHT22;8231;50.866;7.944;2024-02-26T15:57:17;8.30;99.90
16247;DHT22;8231;50.866;7.944;2024-02-26T15:59:45;8.30;99.90
16247;DHT22;8231;50.866;7.944;2024-02-26T16:02:15;8.30;99.90
16247;DHT22;8231;50.866;7.944;2024-02-26T16:04:43;8.20;99.90
16247;DHT22;8231;50.866;7.944;2024-02-26T16:07:18;8.50;99.90
16247;DHT22;8231;50.866;7.944;2024-02-26T16:09:50;8.20;99.90
16247;DHT22;8231;50.866;7.944;2024-02-26T16:12:23;8.10;99.90
16247;DHT22;8231;50.866;7.944;2024-02-26T16:14:54;8.10;99.90